.
WxDataArchive / Data Records for 2014-12-30
2014-12-29 December 2014 2014-12-31

Data Records for Tuesday, 30 December 2014

Time	Temp	Chill	HIndex	Humid	Dewpt	 Wind 	HiWind	WindDir	Rain 	Barom
-----	----	-----	------	-----	-----	------	------	-------	-----	-----
00:00	23.2	23.2	23.2	65	13.2	0	0	---	0.00	30.446 
00:05	23.2	23.2	23.2	65	13.2	0	1	90	0.00	30.446 
00:10	23.0	23.0	23.0	65	13.0	0	1	90	0.00	30.446 
00:15	23.0	23.0	23.0	66	13.4	0	1	90	0.00	30.445 
00:20	22.9	22.9	22.9	66	13.3	0	1	90	0.00	30.445 
00:25	22.9	22.9	22.9	66	13.3	0	1	90	0.00	30.445 
00:30	22.9	22.9	22.9	66	13.3	0	2	90	0.00	30.444 
00:35	22.7	22.7	22.7	66	13.1	0	1	90	0.00	30.444 
00:40	22.5	22.5	22.5	67	13.2	0	1	90	0.00	30.444 
00:45	22.5	22.5	22.5	68	13.6	0	1	90	0.00	30.445 
00:50	22.4	22.4	22.4	68	13.5	0	1	90	0.00	30.445 
00:55	22.2	22.2	22.2	69	13.6	0	1	90	0.00	30.445 
01:00	22.1	22.1	22.1	69	13.5	0	1	90	0.00	30.442 
01:05	22.1	22.1	22.1	70	13.8	0	2	90	0.00	30.442 
01:10	22.1	22.1	22.1	71	14.2	0	2	90	0.00	30.442 
01:15	22.1	22.1	22.1	71	14.2	0	2	90	0.00	30.438 
01:20	21.9	21.9	21.9	72	14.3	0	1	90	0.00	30.438 
01:25	21.9	21.9	21.9	73	14.6	0	2	90	0.00	30.438 
01:30	21.9	21.9	21.9	73	14.6	1	3	90	0.00	30.433 
01:35	21.9	21.9	21.9	74	14.9	0	3	90	0.00	30.433 
01:40	21.9	21.9	21.9	74	14.9	0	3	90	0.00	30.433 
01:45	21.9	21.9	21.9	74	14.9	0	2	90	0.00	30.437 
01:50	21.8	21.8	21.8	75	15.1	0	3	90	0.00	30.437 
01:55	21.8	21.8	21.8	75	15.1	0	1	292	0.00	30.437 
02:00	21.6	21.6	21.6	76	15.2	0	2	292	0.00	30.440 
02:05	21.6	21.6	21.6	76	15.2	0	2	292	0.00	30.440 
02:10	21.6	21.6	21.6	77	15.5	0	2	292	0.00	30.440 
02:15	21.4	21.4	21.4	77	15.3	0	3	292	0.00	30.460 
02:20	21.4	21.4	21.4	77	15.3	0	3	292	0.00	30.460 
02:25	21.3	21.3	21.3	77	15.2	0	1	292	0.00	30.460 
02:30	21.1	21.1	21.1	77	15.0	0	1	292	0.00	30.475 
02:35	21.1	21.1	21.1	77	15.0	0	1	292	0.00	30.475 
02:40	21.0	21.0	21.0	77	14.9	0	1	292	0.00	30.475 
02:45	21.0	21.0	21.0	77	14.9	0	1	292	0.00	30.480 
02:50	20.8	20.8	20.8	77	14.7	0	1	292	0.00	30.480 
02:55	20.8	20.8	20.8	77	14.7	0	1	292	0.00	30.480 
03:00	20.6	20.6	20.6	77	14.6	0	0	---	0.00	30.487 
03:05	20.5	20.5	20.5	78	14.8	0	1	292	0.00	30.487 
03:10	20.5	20.5	20.5	78	14.8	0	1	292	0.00	30.487 
03:15	20.3	20.3	20.3	78	14.6	0	1	292	0.00	30.485 
03:20	20.3	20.3	20.3	78	14.6	0	1	292	0.00	30.485 
03:25	20.2	20.2	20.2	78	14.5	0	1	292	0.00	30.485 
03:30	20.2	20.2	20.2	78	14.5	0	2	292	0.00	30.482 
03:35	20.2	20.2	20.2	79	14.8	0	2	292	0.00	30.482 
03:40	20.2	20.2	20.2	79	14.8	0	2	292	0.00	30.482 
03:45	20.0	20.0	20.0	79	14.6	0	1	292	0.00	30.487 
03:50	20.0	20.0	20.0	79	14.6	0	1	292	0.00	30.487 
03:55	20.0	20.0	20.0	79	14.6	0	1	292	0.00	30.487 
04:00	19.9	19.9	19.9	79	14.5	0	1	292	0.00	30.490 
04:05	19.9	19.9	19.9	79	14.5	0	1	292	0.00	30.490 
04:10	19.7	19.7	19.7	79	14.3	0	1	292	0.00	30.490 
04:15	19.7	19.7	19.7	79	14.3	0	2	292	0.00	30.495 
04:20	19.7	19.7	19.7	79	14.3	0	1	292	0.00	30.495 
04:25	19.5	19.5	19.5	79	14.1	0	1	292	0.00	30.495 
04:30	19.5	19.5	19.5	79	14.1	0	0	---	0.00	30.496 
04:35	19.4	19.4	19.4	79	14.0	0	1	292	0.00	30.496 
04:40	19.2	19.2	19.2	79	13.8	0	0	---	0.00	30.496 
04:45	19.2	19.2	19.2	79	13.8	0	0	---	0.00	30.496 
04:50	19.1	19.1	19.1	79	13.7	0	1	292	0.00	30.496 
04:55	19.1	19.1	19.1	79	13.7	0	0	---	0.00	30.496 
05:00	18.9	18.9	18.9	79	13.5	0	0	---	0.00	30.501 
05:05	18.8	18.8	18.8	79	13.4	0	0	---	0.00	30.501 
05:10	18.6	18.6	18.6	80	13.5	0	0	---	0.00	30.501 
05:15	18.6	18.6	18.6	80	13.5	0	0	---	0.00	30.505 
05:20	18.4	18.4	18.4	80	13.3	0	0	---	0.00	30.505 
05:25	18.4	18.4	18.4	80	13.3	0	1	292	0.00	30.505 
05:30	18.3	18.3	18.3	80	13.2	0	0	---	0.00	30.513 
05:35	18.3	18.3	18.3	80	13.2	0	0	---	0.00	30.513 
05:40	18.3	18.3	18.3	80	13.2	0	0	---	0.00	30.513 
05:45	18.1	18.1	18.1	80	13.0	0	0	---	0.00	30.516 
05:50	18.0	18.0	18.0	80	12.9	0	0	---	0.00	30.516 
05:55	18.0	18.0	18.0	80	12.9	0	1	292	0.00	30.516 
06:00	17.8	17.8	17.8	80	12.7	0	0	---	0.00	30.526 
06:05	17.7	17.7	17.7	81	12.9	0	0	---	0.00	30.526 
06:10	17.5	17.5	17.5	81	12.7	0	0	---	0.00	30.526 
06:15	17.3	17.3	17.3	81	12.5	0	0	---	0.00	30.533 
06:20	17.3	17.3	17.3	81	12.5	0	0	---	0.00	30.533 
06:25	17.2	17.2	17.2	81	12.4	0	0	---	0.00	30.533 
06:30	17.2	17.2	17.2	81	12.4	0	0	---	0.00	30.538 
06:35	17.0	17.0	17.0	81	12.2	0	0	---	0.00	30.538 
06:40	17.0	17.0	17.0	82	12.5	0	0	---	0.00	30.538 
06:45	17.0	17.0	17.0	82	12.5	0	0	---	0.00	30.545 
06:50	16.9	16.9	16.9	82	12.4	0	0	---	0.00	30.545 
06:55	16.9	16.9	16.9	82	12.4	0	0	---	0.00	30.545 
07:00	16.7	16.7	16.7	82	12.2	0	0	---	0.00	30.549 
07:05	16.5	16.5	16.5	82	12.0	0	0	---	0.00	30.549 
07:10	16.4	16.4	16.4	82	11.9	0	0	---	0.00	30.549 
07:15	16.4	16.4	16.4	82	11.9	0	0	---	0.00	30.557 
07:20	16.2	16.2	16.2	82	11.7	0	0	---	0.00	30.557 
07:25	16.1	16.1	16.1	82	11.6	0	0	---	0.00	30.557 
07:30	15.9	15.9	15.9	82	11.4	0	0	---	0.00	30.560 
07:35	15.6	15.6	15.6	82	11.1	0	0	---	0.00	30.560 
07:40	15.4	15.4	15.4	83	11.2	0	0	---	0.00	30.560 
07:45	15.4	15.4	15.4	83	11.2	0	0	---	0.00	30.571 
07:50	15.2	15.2	15.2	83	11.0	0	0	---	0.00	30.571 
07:55	15.2	15.2	15.2	83	11.0	0	0	---	0.00	30.571 
08:00	15.2	15.2	15.2	84	11.3	0	0	---	0.00	30.580 
08:05	15.1	15.1	15.1	84	11.2	0	0	---	0.00	30.580 
08:10	15.1	15.1	15.1	84	11.2	0	0	---	0.00	30.580 
08:15	15.1	15.1	15.1	84	11.2	0	0	---	0.00	30.586 
08:20	15.1	15.1	15.1	84	11.2	0	0	---	0.00	30.586 
08:25	14.9	14.9	14.9	84	11.0	0	0	---	0.00	30.586 
08:30	14.9	14.9	14.9	84	11.0	0	0	---	0.00	30.587 
08:35	14.9	14.9	14.9	84	11.0	0	0	---	0.00	30.587 
08:40	14.9	14.9	14.9	85	11.2	0	0	---	0.00	30.587 
08:45	15.1	15.1	15.1	85	11.4	0	0	---	0.00	30.594 
08:50	15.2	15.2	15.2	85	11.5	0	0	---	0.00	30.594 
08:55	15.4	15.4	15.4	85	11.7	0	0	---	0.00	30.594 
09:00	15.6	15.6	15.6	86	12.2	0	0	---	0.00	30.599 
09:05	16.1	16.1	16.1	86	12.7	0	0	---	0.00	30.599 
09:10	16.7	16.7	16.7	87	13.5	0	0	---	0.00	30.599 
09:15	17.3	17.3	17.3	87	14.1	0	0	---	0.00	30.598 
09:20	18.0	18.0	18.0	86	14.5	0	0	---	0.00	30.598 
09:25	18.3	18.3	18.3	85	14.6	0	0	---	0.00	30.598 
09:30	18.8	18.8	18.8	84	14.8	0	1	292	0.00	30.594 
09:35	18.9	18.9	18.9	82	14.3	0	3	292	0.00	30.594 
09:40	19.2	19.2	19.2	79	13.8	0	2	292	0.00	30.594 
09:45	19.5	19.5	19.5	78	13.8	0	1	292	0.00	30.592 
09:50	19.9	19.9	19.9	76	13.6	0	1	292	0.00	30.592 
09:55	20.2	20.2	20.2	74	13.3	0	2	292	0.00	30.592 
10:00	20.5	20.5	20.5	72	12.9	0	2	292	0.00	30.593 
10:05	20.8	20.8	20.8	70	12.6	0	2	292	0.00	30.593 
10:10	21.0	21.0	21.0	69	12.5	0	1	292	0.00	30.593 
10:15	21.1	21.1	21.1	68	12.2	0	2	292	0.00	30.596 
10:20	21.3	21.3	21.3	67	12.1	0	1	292	0.00	30.596 
10:25	21.4	21.4	21.4	66	11.8	0	1	292	0.00	30.596 
10:30	21.6	21.6	21.6	66	12.0	0	1	292	0.00	30.595 
10:35	21.6	21.6	21.6	65	11.7	0	1	292	0.00	30.595 
10:40	21.8	21.8	21.8	65	11.9	0	1	292	0.00	30.595 
10:45	21.9	21.9	21.9	65	12.0	0	3	292	0.00	30.604 
10:50	22.1	22.1	22.1	64	11.8	0	3	0	0.00	30.604 
10:55	22.2	22.2	22.2	63	11.6	0	1	45	0.00	30.604 
11:00	22.2	22.2	22.2	62	11.2	1	4	45	0.00	30.608 
11:05	22.4	22.4	22.4	64	12.1	0	1	45	0.00	30.608 
11:10	22.7	22.7	22.7	63	12.0	0	3	90	0.00	30.608 
11:15	22.9	22.9	22.9	62	11.9	0	1	90	0.00	30.611 
11:20	23.0	23.0	23.0	64	12.7	0	1	90	0.00	30.611 
11:25	23.3	23.3	23.3	63	12.6	0	1	90	0.00	30.611 
11:30	23.6	23.6	23.6	63	12.9	0	1	90	0.00	30.609 
11:35	23.6	23.6	23.6	61	12.2	0	1	90	0.00	30.609 
11:40	23.9	23.9	23.9	62	12.8	0	1	90	0.00	30.609 
11:45	24.1	24.1	24.1	61	12.6	0	2	90	0.00	30.607 
11:50	24.4	24.4	24.4	62	13.3	0	2	90	0.00	30.607 
11:55	24.4	24.4	24.4	60	12.5	0	3	90	0.00	30.607 
12:00	24.5	24.5	24.5	60	12.6	0	2	90	0.00	30.597 
12:05	24.8	24.8	24.8	60	12.9	0	4	90	0.00	30.597 
12:10	24.8	24.8	24.8	60	12.9	0	2	90	0.00	30.597 
12:15	25.0	25.0	25.0	59	12.7	0	1	90	0.00	30.588 
12:20	25.0	25.0	25.0	59	12.7	0	2	90	0.00	30.588 
12:25	25.1	25.1	25.1	60	13.2	0	1	90	0.00	30.588 
12:30	25.3	25.3	25.3	59	13.0	0	1	90	0.00	30.578 
12:35	25.1	25.1	25.1	58	12.4	1	4	22	0.00	30.578 
12:40	25.1	25.1	25.1	58	12.4	1	3	338	0.00	30.578 
12:45	25.1	25.1	25.1	59	12.8	1	6	338	0.00	30.572 
12:50	25.3	25.3	25.3	59	13.0	1	4	315	0.00	30.572 
12:55	25.3	25.3	25.3	58	12.6	2	4	315	0.00	30.572 
13:00	25.1	25.1	25.1	58	12.4	1	5	292	0.00	30.561 
13:05	25.0	25.0	25.0	59	12.7	2	4	315	0.00	30.561 
13:10	25.1	25.1	25.1	59	12.8	1	6	315	0.00	30.561 
13:15	25.1	25.1	25.1	58	12.4	1	4	315	0.00	30.551 
13:20	25.1	25.1	25.1	58	12.4	1	4	338	0.00	30.551 
13:25	25.1	25.1	25.1	59	12.8	1	3	338	0.00	30.551 
13:30	25.3	25.3	25.3	59	13.0	1	4	315	0.00	30.546 
13:35	25.3	25.3	25.3	57	12.2	1	5	248	0.00	30.546 
13:40	25.3	25.3	25.3	56	11.8	2	5	292	0.00	30.546 
13:45	25.1	25.1	25.1	57	12.0	1	4	315	0.00	30.541 
13:50	25.3	25.3	25.3	57	12.2	2	4	270	0.00	30.541 
13:55	25.1	25.1	25.1	58	12.4	2	5	270	0.00	30.541 
14:00	25.1	25.1	25.1	58	12.4	1	4	270	0.00	30.535 
14:05	25.3	25.3	25.3	58	12.6	1	4	270	0.00	30.535 
14:10	25.1	25.1	25.1	59	12.8	1	3	292	0.00	30.535 
14:15	25.3	25.3	25.3	60	13.4	1	4	292	0.00	30.536 
14:20	25.0	25.0	25.0	59	12.7	1	5	338	0.00	30.536 
14:25	25.0	25.0	25.0	59	12.7	1	4	338	0.00	30.536 
14:30	25.0	25.0	25.0	60	13.1	0	3	338	0.00	30.537 
14:35	25.0	25.0	25.0	60	13.1	1	3	338	0.00	30.537 
14:40	25.0	25.0	25.0	61	13.5	1	3	338	0.00	30.537 
14:45	25.0	25.0	25.0	61	13.5	1	4	338	0.00	30.530 
14:50	25.0	25.0	25.0	60	13.1	1	2	270	0.00	30.530 
14:55	25.1	25.1	25.1	62	13.9	1	3	270	0.00	30.530 
15:00	25.3	25.3	25.3	61	13.8	1	3	270	0.00	30.531 
15:05	25.3	25.3	25.3	61	13.8	2	5	270	0.00	30.531 
15:10	25.3	25.3	25.3	62	14.1	2	6	270	0.00	30.531 
15:15	25.1	25.1	25.1	63	14.3	2	4	270	0.00	30.550 
15:20	25.1	25.1	25.1	62	13.9	1	4	270	0.00	30.550 
15:25	25.3	25.3	25.3	62	14.1	1	3	292	0.00	30.550 
15:30	25.3	25.3	25.3	62	14.1	1	3	292	0.00	30.559 
15:35	25.3	25.3	25.3	61	13.8	1	4	292	0.00	30.559 
15:40	25.4	25.4	25.4	61	13.9	0	2	292	0.00	30.559 
15:45	25.6	25.6	25.6	60	13.7	1	2	292	0.00	30.556 
15:50	25.6	25.6	25.6	59	13.3	1	4	292	0.00	30.556 
15:55	25.6	25.6	25.6	58	12.9	1	3	270	0.00	30.556 
16:00	25.6	25.6	25.6	57	12.5	2	4	270	0.00	30.550 
16:05	25.6	25.6	25.6	58	12.9	1	4	270	0.00	30.550 
16:10	25.6	25.6	25.6	58	12.9	1	5	270	0.00	30.550 
16:15	25.4	25.4	25.4	57	12.3	3	6	292	0.00	30.552 
16:20	25.4	25.4	25.4	62	14.2	3	6	270	0.00	30.552 
16:25	24.8	24.8	24.8	67	15.4	3	7	292	0.00	30.552 
16:30	24.5	24.5	24.5	69	15.8	2	5	338	0.00	30.558 
16:35	24.2	24.2	24.2	70	15.9	1	5	270	0.00	30.558 
16:40	24.1	24.1	24.1	69	15.4	2	4	270	0.00	30.558 
16:45	23.9	23.9	23.9	69	15.2	1	4	292	0.00	30.563 
16:50	23.9	23.9	23.9	69	15.2	1	5	22	0.00	30.563 
16:55	24.1	24.1	24.1	69	15.4	1	4	315	0.00	30.563 
17:00	23.9	23.9	23.9	68	14.9	2	5	315	0.00	30.563 
17:05	23.9	23.9	23.9	68	14.9	0	3	315	0.00	30.563 
17:10	23.9	23.9	23.9	67	14.6	1	3	292	0.00	30.563 
17:15	23.8	23.8	23.8	66	14.1	1	4	292	0.00	30.568 
17:20	23.6	23.6	23.6	62	12.5	2	5	270	0.00	30.568 
17:25	23.6	23.6	23.6	60	11.8	2	5	270	0.00	30.568 
17:30	23.5	23.5	23.5	60	11.7	1	5	315	0.00	30.566 
17:35	23.5	23.5	23.5	59	11.3	1	4	315	0.00	30.566 
17:40	23.3	23.3	23.3	59	11.1	1	4	315	0.00	30.566 
17:45	23.2	23.2	23.2	59	11.0	1	3	292	0.00	30.568 
17:50	23.0	23.0	23.0	59	10.8	1	3	315	0.00	30.568 
17:55	22.9	22.9	22.9	59	10.7	0	1	315	0.00	30.568 
18:00	22.5	22.5	22.5	57	9.6	0	3	292	0.00	30.565 
18:05	22.4	22.4	22.4	56	9.1	1	3	292	0.00	30.565 
18:10	22.2	22.2	22.2	55	8.5	0	2	292	0.00	30.565 
18:15	22.1	22.1	22.1	54	8.0	1	3	292	0.00	30.559 
18:20	21.9	21.9	21.9	55	8.2	0	3	292	0.00	30.559 
18:25	21.8	21.8	21.8	56	8.5	0	3	292	0.00	30.559 
18:30	21.6	21.6	21.6	58	9.1	0	3	292	0.00	30.561 
18:35	21.6	21.6	21.6	59	9.5	0	1	292	0.00	30.561 
18:40	21.4	21.4	21.4	60	9.7	1	2	292	0.00	30.561 
18:45	21.3	21.3	21.3	60	9.6	1	3	315	0.00	30.563 
18:50	21.1	21.1	21.1	59	9.0	1	3	292	0.00	30.563 
18:55	21.0	21.0	21.0	58	8.6	0	3	292	0.00	30.563 
19:00	20.8	20.8	20.8	58	8.4	1	4	292	0.00	30.567 
19:05	20.6	20.6	20.6	58	8.2	0	2	292	0.00	30.567 
19:10	20.5	20.5	20.5	58	8.1	0	3	292	0.00	30.567 
19:15	20.3	20.3	20.3	58	7.9	0	2	292	0.00	30.575 
19:20	20.2	20.2	20.2	59	8.2	0	3	292	0.00	30.575 
19:25	20.2	20.2	20.2	59	8.2	1	4	292	0.00	30.575 
19:30	20.0	20.0	20.0	59	8.0	0	3	292	0.00	30.574 
19:35	19.9	19.9	19.9	59	7.9	1	3	292	0.00	30.574 
19:40	19.9	19.9	19.9	59	7.9	1	3	292	0.00	30.574 
19:45	19.7	19.7	19.7	60	8.1	0	2	292	0.00	30.577 
19:50	19.5	19.5	19.5	60	7.9	0	1	292	0.00	30.577 
19:55	19.4	19.4	19.4	60	7.8	0	1	292	0.00	30.577 
20:00	19.2	19.2	19.2	61	8.0	0	2	292	0.00	30.584 
20:05	19.1	19.1	19.1	61	7.9	0	2	292	0.00	30.584 
20:10	19.1	19.1	19.1	61	7.9	0	1	292	0.00	30.584 
20:15	18.9	18.9	18.9	61	7.7	0	1	292	0.00	30.589 
20:20	18.8	18.8	18.8	62	8.0	0	1	292	0.00	30.589 
20:25	18.8	18.8	18.8	62	8.0	0	1	292	0.00	30.589 
20:30	18.6	18.6	18.6	62	7.8	0	2	292	0.00	30.590 
20:35	18.4	18.4	18.4	63	7.9	0	2	292	0.00	30.590 
20:40	18.4	18.4	18.4	64	8.3	0	1	292	0.00	30.590 
20:45	18.3	18.3	18.3	64	8.2	0	1	292	0.00	30.589 
20:50	18.1	18.1	18.1	65	8.3	0	1	292	0.00	30.589 
20:55	18.0	18.0	18.0	65	8.3	0	1	292	0.00	30.589 
21:00	17.8	17.8	17.8	66	8.4	0	1	292	0.00	30.590 
21:05	17.8	17.8	17.8	67	8.7	0	0	---	0.00	30.590 
21:10	17.7	17.7	17.7	67	8.6	0	2	292	0.00	30.590 
21:15	17.7	17.7	17.7	67	8.6	0	1	292	0.00	30.586 
21:20	17.5	17.5	17.5	68	8.8	0	2	292	0.00	30.586 
21:25	17.3	17.3	17.3	67	8.3	0	2	292	0.00	30.586 
21:30	17.3	17.3	17.3	67	8.3	0	2	292	0.00	30.586 
21:35	17.2	17.2	17.2	67	8.2	0	2	292	0.00	30.586 
21:40	17.2	17.2	17.2	67	8.2	0	2	292	0.00	30.586 
21:45	17.0	17.0	17.0	67	8.0	0	0	---	0.00	30.586 
21:50	16.9	16.9	16.9	67	7.9	0	0	---	0.00	30.586 
21:55	16.7	16.7	16.7	67	7.7	0	0	---	0.00	30.586 
22:00	16.5	16.5	16.5	68	7.8	0	0	---	0.00	30.586 
22:05	16.4	16.4	16.4	68	7.7	0	0	---	0.00	30.586 
22:10	16.2	16.2	16.2	69	7.8	0	1	292	0.00	30.586 
22:15	16.2	16.2	16.2	69	7.8	0	1	292	0.00	30.587 
22:20	16.2	16.2	16.2	69	7.8	0	0	---	0.00	30.587 
22:25	16.1	16.1	16.1	69	7.8	0	0	---	0.00	30.587 
22:30	16.1	16.1	16.1	69	7.8	0	0	---	0.00	30.589 
22:35	15.9	15.9	15.9	69	7.6	0	0	---	0.00	30.589 
22:40	15.7	15.7	15.7	69	7.4	0	0	---	0.00	30.589 
22:45	15.7	15.7	15.7	69	7.4	0	0	---	0.00	30.590 
22:50	15.7	15.7	15.7	69	7.4	0	0	---	0.00	30.590 
22:55	15.6	15.6	15.6	69	7.3	0	0	---	0.00	30.590 
23:00	15.6	15.6	15.6	69	7.3	0	0	---	0.00	30.587 
23:05	15.4	15.4	15.4	69	7.1	0	0	---	0.00	30.587 
23:10	15.4	15.4	15.4	69	7.1	0	1	292	0.00	30.587 
23:15	15.2	15.2	15.2	70	7.2	0	0	---	0.00	30.583 
23:20	15.4	15.4	15.4	70	7.4	0	1	292	0.00	30.583 
23:25	15.4	15.4	15.4	70	7.4	0	1	292	0.00	30.583 
23:30	15.4	15.4	15.4	69	7.1	0	1	292	0.00	30.583 
23:35	15.4	15.4	15.4	69	7.1	0	1	292	0.00	30.583 
23:40	15.4	15.4	15.4	69	7.1	0	0	---	0.00	30.583 
23:45	15.4	15.4	15.4	69	7.1	0	1	292	0.00	30.582 
23:50	15.4	15.4	15.4	68	6.8	0	1	292	0.00	30.582 
23:55	15.4	15.4	15.4	68	6.8	0	1	292	0.00	30.582 

CoCoRaHS
IN-AL-39
A2 Web Hosting
Creative Commons License
GoDaddy
search engine by freefind advanced

loaded 2018-11-15 14:33:43 • last modified 2010-11-18 10:43:29
Privacy PolicyDisclaimer
• wx.awcolley.com is powered by PmWiki v.2002016 •
• all content (unless otherwise noted) © 2018 A W Colley